createdAt,value
2018-03-14T00:01:45.497Z,1005
2018-03-14T00:06:45.775Z,1005
2018-03-14T00:11:45.763Z,1005
2018-03-14T00:16:45.617Z,1005.2
2018-03-14T00:21:45.621Z,1005.2
2018-03-14T00:26:46.180Z,1005.3
2018-03-14T00:31:45.627Z,1005.3
2018-03-14T00:36:45.850Z,1005.3
2018-03-14T00:41:46.182Z,1005.3
2018-03-14T00:46:45.663Z,1005.3
2018-03-14T00:51:45.570Z,1005.3
2018-03-14T00:56:45.972Z,1005.3
2018-03-14T01:01:46.212Z,1005.3
2018-03-14T01:06:46.253Z,1005.3
2018-03-14T01:11:46.321Z,1005.3
2018-03-14T01:16:46.225Z,1005.3
2018-03-14T01:21:46.090Z,1005.3
2018-03-14T01:26:45.957Z,1005.3
2018-03-14T01:31:45.710Z,1005.3
2018-03-14T01:36:45.831Z,1005.3
2018-03-14T01:41:46.064Z,1005.3
2018-03-14T01:46:46.041Z,1005.5
2018-03-14T01:51:46.446Z,1005.5
2018-03-14T01:56:45.679Z,1005.7
2018-03-14T02:01:46.050Z,1005.7
2018-03-14T02:06:45.975Z,1005.7
2018-03-14T02:11:46.143Z,1005.7
2018-03-14T02:16:45.702Z,1005.8
2018-03-14T02:21:46.304Z,1005.8
2018-03-14T02:26:45.768Z,1005.9
2018-03-14T02:31:46.094Z,1005.9
2018-03-14T02:36:46.000Z,1005.9
2018-03-14T02:41:45.981Z,1005.9
2018-03-14T02:46:45.941Z,1006.2
2018-03-14T02:51:45.804Z,1006.2
2018-03-14T02:56:46.042Z,1006.3
2018-03-14T03:01:46.124Z,1006.3
2018-03-14T03:06:45.662Z,1006.3
2018-03-14T03:11:46.075Z,1006.3
2018-03-14T03:16:45.717Z,1006.3
2018-03-14T03:21:45.640Z,1006.3
2018-03-14T03:26:46.107Z,1006.6
2018-03-14T03:31:46.099Z,1006.6
2018-03-14T03:36:45.703Z,1006.6
2018-03-14T03:41:46.379Z,1006.6
2018-03-14T03:46:46.597Z,1006.8
2018-03-14T03:51:46.022Z,1006.8
2018-03-14T03:56:45.824Z,1006.8
2018-03-14T04:01:46.780Z,1006.8
2018-03-14T04:06:45.731Z,1006.8
2018-03-14T04:11:46.232Z,1006.8
2018-03-14T04:16:46.655Z,1007
2018-03-14T04:21:46.646Z,1007
2018-03-14T04:26:46.592Z,1007.3
2018-03-14T04:31:46.746Z,1007.3
2018-03-14T04:36:46.721Z,1007.3
2018-03-14T04:41:45.869Z,1007.3
2018-03-14T04:46:45.839Z,1007.3
2018-03-14T04:51:45.896Z,1007.3
2018-03-14T04:56:45.915Z,1007.3
2018-03-14T05:01:45.929Z,1007.3
2018-03-14T05:06:46.390Z,1007.3
2018-03-14T05:11:46.416Z,1007.3
2018-03-14T05:16:51.456Z,1007.5
2018-03-14T05:21:46.442Z,1007.5
2018-03-14T05:26:46.483Z,1007.7
2018-03-14T05:31:46.176Z,1007.7
2018-03-14T05:36:46.424Z,1007.7
2018-03-14T05:41:46.827Z,1007.7
2018-03-14T05:46:45.889Z,1007.9
2018-03-14T05:51:45.842Z,1007.9
2018-03-14T05:56:45.827Z,1008
2018-03-14T06:01:45.973Z,1008
2018-03-14T06:06:46.466Z,1008
2018-03-14T06:11:46.422Z,1008
2018-03-14T06:16:46.449Z,1008
2018-03-14T06:21:46.370Z,1008
2018-03-14T06:26:46.315Z,1008.3
2018-03-14T06:31:46.181Z,1008.3
2018-03-14T06:36:46.302Z,1008.3
2018-03-14T06:41:46.180Z,1008.3
2018-03-14T06:46:46.075Z,1008.4
2018-03-14T06:51:45.912Z,1008.4
2018-03-14T06:56:46.779Z,1008.6
2018-03-14T07:01:46.789Z,1008.6
2018-03-14T07:06:46.855Z,1008.7
2018-03-14T07:11:46.721Z,1008.7
2018-03-14T07:16:46.682Z,1008.9
2018-03-14T07:21:46.726Z,1008.9
2018-03-14T07:26:46.633Z,1008.9
2018-03-14T07:31:46.638Z,1008.9
2018-03-14T07:36:46.570Z,1008.9
2018-03-14T07:41:46.494Z,1008.9
2018-03-14T07:46:46.379Z,1009
2018-03-14T07:51:46.320Z,1009
2018-03-14T07:56:46.158Z,1009
2018-03-14T08:01:46.157Z,1009
2018-03-14T08:06:46.473Z,1009
2018-03-14T08:11:46.333Z,1009
2018-03-14T08:16:46.189Z,1009.2
2018-03-14T08:21:46.211Z,1009.2
2018-03-14T08:26:46.208Z,1009.2
2018-03-14T08:31:46.138Z,1009.2
2018-03-14T08:36:46.073Z,1009.2
2018-03-14T08:41:45.991Z,1009.2
2018-03-14T08:46:46.995Z,1009.4
2018-03-14T08:51:46.881Z,1009.4
2018-03-14T08:56:46.749Z,1009.5
2018-03-14T09:01:46.694Z,1009.5
2018-03-14T09:06:46.675Z,1009.5
2018-03-14T09:11:46.596Z,1009.5
2018-03-14T09:16:46.440Z,1009.7
2018-03-14T09:21:46.332Z,1009.7
2018-03-14T09:26:46.310Z,1010
2018-03-14T09:31:46.350Z,1010
2018-03-14T09:36:46.374Z,1010
2018-03-14T09:41:46.282Z,1010
2018-03-14T09:46:46.223Z,1010
2018-03-14T09:51:46.158Z,1010
2018-03-14T09:56:46.306Z,1010
2018-03-14T10:01:46.263Z,1010
2018-03-14T10:06:46.457Z,1010
2018-03-14T10:11:46.333Z,1010
2018-03-14T10:16:46.327Z,1010
2018-03-14T10:21:46.300Z,1010
2018-03-14T10:26:46.334Z,1010
2018-03-14T10:31:46.277Z,1010
2018-03-14T10:36:46.506Z,1010
2018-03-14T10:41:46.425Z,1010
2018-03-14T10:46:46.355Z,1010
2018-03-14T10:51:46.282Z,1010
2018-03-14T10:56:46.180Z,1010.1
2018-03-14T11:01:47.136Z,1010.1
2018-03-14T11:06:46.765Z,1010.2
2018-03-14T11:11:46.669Z,1010.2
2018-03-14T11:16:46.625Z,1010.3
2018-03-14T11:21:46.579Z,1010.3
2018-03-14T11:26:46.480Z,1010.4
2018-03-14T11:31:46.486Z,1010.4
2018-03-14T11:36:46.383Z,1010.4
2018-03-14T11:41:46.310Z,1010.4
2018-03-14T11:46:46.247Z,1010.4
2018-03-14T11:51:47.171Z,1010.4
2018-03-14T11:56:47.042Z,1010.4
2018-03-14T12:01:47.220Z,1010.4
2018-03-14T12:06:46.511Z,1010.4
2018-03-14T12:11:46.506Z,1010.4
2018-03-14T12:16:46.513Z,1010.4
2018-03-14T12:21:46.479Z,1010.4
2018-03-14T12:26:46.368Z,1010.5
2018-03-14T12:31:46.378Z,1010.5
2018-03-14T12:36:46.449Z,1010.5
2018-03-14T12:41:46.312Z,1010.5
2018-03-14T12:46:46.323Z,1010.4
2018-03-14T12:51:46.293Z,1010.4
2018-03-14T12:56:47.232Z,1010.4
2018-03-14T13:01:47.220Z,1010.4
2018-03-14T13:06:46.337Z,1010.4
2018-03-14T13:11:47.383Z,1010.4
2018-03-14T13:16:46.401Z,1010.4
2018-03-14T13:21:47.076Z,1010.4
2018-03-14T13:26:47.200Z,1010.4
2018-03-14T13:31:47.150Z,1010.4
2018-03-14T13:36:47.020Z,1010.4
2018-03-14T13:41:46.900Z,1010.4
2018-03-14T13:46:46.942Z,1010.4
2018-03-14T13:51:46.872Z,1010.4
2018-03-14T13:56:47.257Z,1010.4
2018-03-14T14:01:47.289Z,1010.4
2018-03-14T14:06:47.202Z,1010.4
2018-03-14T14:11:47.320Z,1010.4
2018-03-14T14:16:47.221Z,1010.4
2018-03-14T14:21:47.253Z,1010.4
2018-03-14T14:26:47.102Z,1010.3
2018-03-14T14:31:47.166Z,1010.3
2018-03-14T14:36:47.022Z,1010.3
2018-03-14T14:41:46.944Z,1010.3
2018-03-14T14:46:46.869Z,1010.2
2018-03-14T14:51:46.826Z,1010.2
2018-03-14T14:56:46.842Z,1010.1
2018-03-14T15:01:46.802Z,1010.1
2018-03-14T15:06:46.897Z,1010.1
2018-03-14T15:11:46.794Z,1010.1
2018-03-14T15:16:46.713Z,1010.1
2018-03-14T15:21:46.555Z,1010.1
2018-03-14T15:26:46.497Z,1010
2018-03-14T15:31:47.405Z,1010
2018-03-14T15:36:47.451Z,1010
2018-03-14T15:41:47.296Z,1010
2018-03-14T15:46:47.224Z,1010
2018-03-14T15:51:47.112Z,1010
2018-03-14T15:56:47.070Z,1010
2018-03-14T16:01:47.146Z,1010
2018-03-14T16:06:47.193Z,1010
2018-03-14T16:11:47.278Z,1010
2018-03-14T16:16:47.256Z,1010
2018-03-14T16:21:47.354Z,1010
2018-03-14T16:26:47.199Z,1010
2018-03-14T16:31:47.147Z,1010
2018-03-14T16:37:18.119Z,1010
2018-03-14T16:41:47.075Z,1010
2018-03-14T16:46:46.960Z,1010
2018-03-14T16:51:46.856Z,1010
2018-03-14T16:56:46.781Z,1010
2018-03-14T17:01:46.751Z,1010
2018-03-14T17:06:46.672Z,1010
2018-03-14T17:11:47.308Z,1010
2018-03-14T17:16:47.246Z,1010
2018-03-14T17:21:47.167Z,1010
2018-03-14T17:26:47.083Z,1010
2018-03-14T17:31:47.075Z,1010
2018-03-14T17:36:46.983Z,1010
2018-03-14T17:41:46.977Z,1010
2018-03-14T17:46:46.854Z,1010
2018-03-14T17:51:46.739Z,1010
2018-03-14T17:56:46.646Z,1010
2018-03-14T18:01:47.613Z,1010
2018-03-14T18:06:47.625Z,1010
2018-03-14T18:11:47.229Z,1010
2018-03-14T18:16:47.227Z,1010
2018-03-14T18:21:47.386Z,1010
2018-03-14T18:26:47.269Z,1010
2018-03-14T18:31:47.237Z,1010
2018-03-14T18:36:47.251Z,1010
2018-03-14T18:41:47.203Z,1010
2018-03-14T18:46:47.110Z,1010
2018-03-14T18:51:47.018Z,1010
2018-03-14T18:56:46.981Z,1010
2018-03-14T19:01:47.039Z,1010
2018-03-14T19:06:46.966Z,1010
2018-03-14T19:11:47.140Z,1010
2018-03-14T19:16:47.053Z,1010
2018-03-14T19:21:47.051Z,1010
2018-03-14T19:26:47.359Z,1010
2018-03-14T19:31:47.367Z,1010
2018-03-14T19:36:47.407Z,1010
2018-03-14T19:41:47.371Z,1010
2018-03-14T19:46:47.299Z,1010
2018-03-14T19:51:47.197Z,1010
2018-03-14T19:56:47.187Z,1010
2018-03-14T20:01:47.207Z,1010
2018-03-14T20:06:47.173Z,1010
2018-03-14T20:11:47.651Z,1010
2018-03-14T20:16:47.547Z,1010
2018-03-14T20:21:47.784Z,1010
2018-03-14T20:26:47.647Z,1010
2018-03-14T20:31:47.529Z,1010
2018-03-14T20:36:47.485Z,1010
2018-03-14T20:41:47.478Z,1010
2018-03-14T20:46:47.443Z,1010
2018-03-14T20:51:47.390Z,1010
2018-03-14T20:56:47.242Z,1009.9
2018-03-14T21:01:47.256Z,1009.9
2018-03-14T21:06:47.287Z,1009.9
2018-03-14T21:11:47.057Z,1009.9
2018-03-14T21:16:47.013Z,1009.7
2018-03-14T21:21:46.958Z,1009.7
2018-03-14T21:26:46.837Z,1009.5
2018-03-14T21:31:47.778Z,1009.5
2018-03-14T21:36:47.779Z,1009.5
2018-03-14T21:41:47.740Z,1009.5
2018-03-14T21:46:47.550Z,1009.5
2018-03-14T21:51:47.767Z,1009.5
2018-03-14T21:56:47.724Z,1009.5
2018-03-14T22:01:47.721Z,1009.5
2018-03-14T22:06:47.695Z,1009.5
2018-03-14T22:11:47.598Z,1009.5
2018-03-14T22:16:47.476Z,1009.4
2018-03-14T22:21:47.355Z,1009.4
2018-03-14T22:26:47.205Z,1009.4
2018-03-14T22:31:47.148Z,1009.4
2018-03-14T22:36:47.075Z,1009.4
2018-03-14T22:41:47.092Z,1009.4
2018-03-14T22:46:47.056Z,1009.4
2018-03-14T22:51:46.999Z,1009.4
2018-03-14T22:56:46.932Z,1009.4
2018-03-14T23:01:47.214Z,1009.4
2018-03-14T23:06:47.304Z,1009.4
2018-03-14T23:11:46.978Z,1009.4
2018-03-14T23:16:47.896Z,1009.4
2018-03-14T23:21:47.842Z,1009.4
2018-03-14T23:26:47.668Z,1009.2
2018-03-14T23:31:47.542Z,1009.2
2018-03-14T23:36:47.538Z,1009.1
2018-03-14T23:41:47.486Z,1009.1
2018-03-14T23:46:47.393Z,1009.2
2018-03-14T23:51:47.269Z,1009.2
2018-03-14T23:56:47.158Z,1009.2
